Time;durP1;ratioP1;P1;durP2;ratioP2;P2;SDS_P1;SDS_P2;PMS_P1;PMS_P2;Temp;Humidity;BMP_temperature;BMP_pressure;BME280_temperature;BME280_humidity;BME280_pressure;Samples;Min_cycle;Max_cycle;Signal;HPM_P1;HPM_P2
2022/04/19 00:01:38;;;;;;;4.63;4.10;;;;;;;3.67;100.00;96729.28;4949604;28;20662;-60
2022/04/19 00:04:06;;;;;;;4.30;4.00;;;;;;;3.66;100.00;96724.16;4912823;28;20207;-56
2022/04/19 00:06:35;;;;;;;3.60;3.30;;;;;;;3.65;100.00;96725.97;4940188;28;20322;-61
2022/04/19 00:09:04;;;;;;;3.90;3.70;;;;;;;3.60;100.00;96718.56;4947239;28;20282;-56
2022/04/19 00:11:32;;;;;;;3.97;3.67;;;;;;;3.60;100.00;96707.28;4945325;28;20338;-61
2022/04/19 00:14:02;;;;;;;4.23;3.90;;;;;;;3.56;100.00;96714.59;4950320;28;20293;-61
2022/04/19 00:16:30;;;;;;;4.30;4.00;;;;;;;3.51;100.00;96714.25;4942030;28;20316;-60
2022/04/19 00:18:59;;;;;;;4.00;3.80;;;;;;;3.45;100.00;96701.75;4913585;28;20609;-59
2022/04/19 00:21:27;;;;;;;4.37;3.90;;;;;;;3.44;100.00;96706.16;4946019;28;20230;-59
2022/04/19 00:23:55;;;;;;;4.47;4.13;;;;;;;3.43;100.00;96703.69;4942334;28;20234;-61
2022/04/19 00:26:23;;;;;;;4.17;3.87;;;;;;;3.39;100.00;96694.47;4945241;28;20206;-58
2022/04/19 00:28:51;;;;;;;4.40;4.10;;;;;;;3.37;100.00;96702.50;4945173;28;20203;-60
2022/04/19 00:31:22;;;;;;;5.40;4.47;;;;;;;3.36;100.00;96700.84;4944669;28;20612;-58
2022/04/19 00:33:50;;;;;;;4.13;3.73;;;;;;;3.32;100.00;96700.31;4911321;28;20519;-58
2022/04/19 00:36:22;;;;;;;3.90;3.70;;;;;;;3.31;100.00;96697.84;4950387;28;20316;-60
2022/04/19 00:38:51;;;;;;;4.30;3.80;;;;;;;3.28;100.00;96696.34;4945552;28;20218;-58
2022/04/19 00:41:19;;;;;;;3.90;3.70;;;;;;;3.23;100.00;96695.19;4943343;28;20227;-61
2022/04/19 00:43:47;;;;;;;3.80;3.60;;;;;;;3.23;100.00;96695.19;4948672;28;20476;-56
2022/04/19 00:46:15;;;;;;;4.07;3.77;;;;;;;3.14;100.00;96695.06;4946268;28;20214;-58
2022/04/19 00:48:45;;;;;;;4.47;4.17;;;;;;;3.10;100.00;96688.50;4944774;28;20306;-57
2022/04/19 00:51:13;;;;;;;4.13;3.90;;;;;;;3.09;100.00;96686.03;4894644;28;20552;-58
2022/04/19 00:53:42;;;;;;;4.27;3.97;;;;;;;3.07;100.00;96691.41;4943690;28;20298;-59
2022/04/19 00:56:10;;;;;;;4.20;3.93;;;;;;;2.98;100.00;96681.84;4930800;28;20834;-60
2022/04/19 00:58:38;;;;;;;4.83;4.37;;;;;;;2.97;100.00;96674.97;4949179;28;20265;-61
2022/04/19 01:01:07;;;;;;;4.53;4.13;;;;;;;2.97;100.00;96677.56;4947482;28;20226;-59
2022/04/19 01:03:37;;;;;;;4.07;3.77;;;;;;;2.91;100.00;96670.31;4946652;28;20206;-59
2022/04/19 01:06:07;;;;;;;3.57;3.37;;;;;;;2.88;100.00;96666.19;4910137;28;20244;-61
2022/04/19 01:08:35;;;;;;;4.60;4.30;;;;;;;2.84;100.00;96670.91;4942377;28;20333;-60
2022/04/19 01:13:49;;;;;;;5.23;4.23;;;;;;;2.79;100.00;96662.66;4945020;28;20598;-58
2022/04/19 01:16:17;;;;;;;4.10;3.80;;;;;;;2.72;100.00;96651.16;4943645;28;20322;-59
2022/04/19 01:18:45;;;;;;;5.53;4.47;;;;;;;2.71;100.00;96658.19;4946703;28;20203;-58
2022/04/19 01:21:15;;;;;;;4.63;4.33;;;;;;;2.65;100.00;96661.41;4915705;28;20891;-59
2022/04/19 01:23:44;;;;;;;4.17;3.77;;;;;;;2.63;100.00;96652.03;4943494;28;20667;-60
2022/04/19 01:26:12;;;;;;;4.43;4.20;;;;;;;2.60;100.00;96650.53;4943830;28;20397;-58
2022/04/19 01:28:40;;;;;;;4.47;4.07;;;;;;;2.60;100.00;96642.69;4922991;28;20877;-63
2022/04/19 01:31:09;;;;;;;5.23;4.00;;;;;;;2.54;100.00;96641.50;4937399;28;20357;-62
2022/04/19 01:33:37;;;;;;;5.20;4.70;;;;;;;2.54;100.00;96656.34;4943438;28;20683;-58
2022/04/19 01:36:08;;;;;;;4.73;4.43;;;;;;;2.50;100.00;96647.16;4912869;28;20449;-60
2022/04/19 01:38:36;;;;;;;4.53;4.23;;;;;;;2.44;100.00;96652.00;4945795;28;20206;-57
2022/04/19 01:41:08;;;;;;;5.50;4.03;;;;;;;2.44;100.00;96644.16;4923099;28;20238;-59
2022/04/19 01:43:36;;;;;;;4.83;4.40;;;;;;;2.42;100.00;96650.50;4924924;28;20219;-60
2022/04/19 01:46:04;;;;;;;9.00;7.40;;;;;;;2.34;100.00;96638.16;4943958;28;20652;-60
2022/04/19 01:48:32;;;;;;;11.17;8.23;;;;;;;2.27;100.00;96640.53;4948043;28;20606;-58
2022/04/19 01:51:00;;;;;;;6.67;6.03;;;;;;;2.25;100.00;96636.41;4911339;28;21911;-54
2022/04/19 01:53:28;;;;;;;5.87;5.37;;;;;;;2.23;100.00;96631.34;4943552;28;20218;-59
2022/04/19 01:55:56;;;;;;;4.73;4.40;;;;;;;2.17;100.00;96634.53;4941013;28;20206;-59
2022/04/19 01:58:26;;;;;;;5.03;4.50;;;;;;;2.16;100.00;96641.53;4948666;28;20294;-59
2022/04/19 02:00:54;;;;;;;4.70;4.40;;;;;;;2.05;100.00;96625.22;4927891;28;20328;-57
2022/04/19 02:03:22;;;;;;;6.63;5.30;;;;;;;2.07;100.00;96634.56;4941172;28;20292;-61
2022/04/19 02:05:50;;;;;;;4.97;4.57;;;;;;;2.00;100.00;96628.28;4945508;28;20702;-59
2022/04/19 02:08:18;;;;;;;5.50;5.10;;;;;;;1.98;100.00;96625.78;4904957;28;20762;-58
2022/04/19 02:10:47;;;;;;;5.37;4.87;;;;;;;1.95;100.00;96626.06;4951114;28;20237;-56
2022/04/19 02:13:15;;;;;;;6.30;5.70;;;;;;;1.84;100.00;96611.41;4939861;28;20203;-58
2022/04/19 02:15:46;;;;;;;5.00;4.47;;;;;;;1.85;100.00;96627.91;4904789;28;20483;-59
2022/04/19 02:18:14;;;;;;;5.23;4.73;;;;;;;1.83;100.00;96632.44;4936693;28;20594;-59
2022/04/19 02:20:43;;;;;;;4.77;4.37;;;;;;;1.82;100.00;96625.59;4950135;28;20516;-58
2022/04/19 02:23:12;;;;;;;4.73;4.43;;;;;;;1.80;100.00;96622.28;4910239;28;20218;-61
2022/04/19 02:25:40;;;;;;;4.80;4.40;;;;;;;1.78;100.00;96614.59;4944725;28;20217;-58
2022/04/19 02:28:10;;;;;;;6.77;6.20;;;;;;;1.73;100.00;96614.19;4941932;28;20353;-56
2022/04/19 02:30:38;;;;;;;4.97;4.67;;;;;;;1.67;100.00;96612.97;4927384;28;20352;-60
2022/04/19 02:33:07;;;;;;;4.93;4.63;;;;;;;1.65;100.00;96614.09;4935582;28;20840;-57
2022/04/19 02:35:35;;;;;;;5.13;4.73;;;;;;;1.63;100.00;96616.81;4949035;28;20237;-60
2022/04/19 02:38:03;;;;;;;4.67;4.30;;;;;;;1.63;100.00;96614.22;4908838;28;20930;-56
2022/04/19 02:40:31;;;;;;;4.73;4.33;;;;;;;1.63;100.00;96619.44;4944164;28;20250;-62
2022/04/19 02:42:59;;;;;;;5.13;4.73;;;;;;;1.65;100.00;96620.13;4946044;28;20230;-57
2022/04/19 02:45:27;;;;;;;4.93;4.53;;;;;;;1.66;100.00;96618.34;4950983;28;20214;-59
2022/04/19 02:48:08;;;;;;;4.73;4.33;;;;;;;1.63;100.00;96613.41;4911657;28;20249;-61
2022/04/19 02:50:41;;;;;;;5.20;4.70;;;;;;;1.62;100.00;96607.34;4948262;28;20337;-59
2022/04/19 02:53:10;;;;;;;4.70;4.30;;;;;;;1.63;100.00;96610.78;4910668;28;20412;-57
2022/04/19 02:55:38;;;;;;;4.70;4.30;;;;;;;1.58;100.00;96614.66;4944250;28;20225;-59
2022/04/19 02:58:07;;;;;;;4.77;4.47;;;;;;;1.57;100.00;96615.63;4943982;28;20402;-62
2022/04/19 03:00:35;;;;;;;4.80;4.50;;;;;;;1.52;100.00;96610.00;4945446;28;20683;-59
2022/04/19 03:03:03;;;;;;;4.13;3.93;;;;;;;1.51;100.00;96610.13;4926387;28;20214;-64
2022/04/19 03:05:33;;;;;;;4.90;4.50;;;;;;;1.48;100.00;96607.81;4931959;28;20309;-60
2022/04/19 03:08:02;;;;;;;4.93;4.53;;;;;;;1.47;100.00;96611.38;4910230;28;20598;-60
2022/04/19 03:10:30;;;;;;;4.40;4.10;;;;;;;1.44;100.00;96613.31;4946483;28;20321;-62
2022/04/19 03:12:58;;;;;;;5.13;4.63;;;;;;;1.41;100.00;96608.38;4943604;28;20672;-59
2022/04/19 03:15:27;;;;;;;4.97;4.67;;;;;;;1.38;100.00;96606.03;4946363;28;20209;-62
2022/04/19 03:17:55;;;;;;;4.67;4.37;;;;;;;1.35;100.00;96602.88;4922547;28;20604;-58
2022/04/19 03:20:23;;;;;;;4.53;4.23;;;;;;;1.37;100.00;96604.41;4936844;28;20457;-59
2022/04/19 03:28:23;;;;;;;5.03;4.63;;;;;;;1.31;100.00;96594.50;4946334;28;20229;-58
2022/04/19 03:30:51;;;;;;;5.47;4.63;;;;;;;1.26;100.00;96592.31;4945244;28;20303;-58
2022/04/19 03:33:20;;;;;;;5.20;4.70;;;;;;;1.23;100.00;96595.22;4927286;28;20214;-61
2022/04/19 03:35:48;;;;;;;4.87;4.57;;;;;;;1.22;100.00;96596.19;4930122;28;22395;-60
2022/04/19 03:38:19;;;;;;;5.13;4.70;;;;;;;1.19;100.00;96595.63;4943175;28;20315;-58
2022/04/19 03:40:47;;;;;;;5.53;5.13;;;;;;;1.18;100.00;96589.59;4908265;28;20264;-59
2022/04/19 03:43:15;;;;;;;5.13;4.73;;;;;;;1.17;100.00;96595.78;4946124;28;20209;-60
2022/04/19 03:45:43;;;;;;;5.13;4.73;;;;;;;1.09;100.00;96590.41;4940934;28;20302;-61
2022/04/19 03:48:12;;;;;;;5.37;4.97;;;;;;;1.06;100.00;96594.13;4924896;28;20471;-62
2022/04/19 03:50:41;;;;;;;5.07;4.67;;;;;;;1.05;100.00;96591.66;4942477;28;20228;-62
2022/04/19 03:53:09;;;;;;;5.10;4.60;;;;;;;0.98;100.00;96587.00;4933197;28;20834;-62
2022/04/19 03:55:39;;;;;;;6.03;5.57;;;;;;;0.99;100.00;96593.03;4911795;28;20218;-59
2022/04/19 03:58:07;;;;;;;5.20;4.80;;;;;;;0.99;100.00;96590.44;4940806;28;20687;-60
2022/04/19 04:00:35;;;;;;;5.33;4.93;;;;;;;0.97;100.00;96584.53;4944136;28;20230;-58
2022/04/19 04:03:04;;;;;;;4.73;4.43;;;;;;;0.90;100.00;96591.25;4926216;28;20818;-57
2022/04/19 04:05:32;;;;;;;5.90;5.43;;;;;;;0.85;100.00;96589.06;4946464;28;20297;-62
2022/04/19 04:08:00;;;;;;;5.97;5.57;;;;;;;0.90;100.00;96596.47;4934024;28;20420;-62
2022/04/19 04:10:28;;;;;;;5.63;5.20;;;;;;;0.84;100.00;96596.06;4909735;28;20252;-59
2022/04/19 04:12:59;;;;;;;5.33;4.87;;;;;;;0.81;100.00;96600.72;4943091;28;20781;-56
2022/04/19 04:15:28;;;;;;;6.40;5.90;;;;;;;0.80;100.00;96593.88;4945854;28;20206;-56
2022/04/19 04:17:56;;;;;;;5.40;5.10;;;;;;;0.77;100.00;96594.16;4939584;28;20207;-58
2022/04/19 04:20:24;;;;;;;5.03;4.73;;;;;;;0.81;100.00;96605.94;4925250;28;20234;-59
2022/04/19 04:22:52;;;;;;;6.07;5.57;;;;;;;0.77;100.00;96594.97;4930259;28;20687;-60
2022/04/19 04:25:20;;;;;;;5.57;5.17;;;;;;;0.74;100.00;96599.59;4946520;28;20312;-59
2022/04/19 04:27:48;;;;;;;6.00;5.60;;;;;;;0.70;100.00;96599.88;4906988;28;20598;-58
2022/04/19 04:30:18;;;;;;;7.67;6.77;;;;;;;0.75;100.00;96599.50;4948734;28;20843;-60
2022/04/19 04:32:46;;;;;;;8.30;7.47;;;;;;;0.78;100.00;96598.41;4948576;28;20202;-58
2022/04/19 04:35:14;;;;;;;9.07;7.50;;;;;;;0.84;100.00;96588.22;4932780;28;20242;-59
2022/04/19 04:37:42;;;;;;;9.83;7.07;;;;;;;0.94;100.00;96598.66;4946342;28;20717;-59
2022/04/19 04:40:11;;;;;;;6.03;5.60;;;;;;;0.97;100.00;96590.56;4948444;28;20313;-58
2022/04/19 04:42:39;;;;;;;6.53;5.87;;;;;;;1.01;100.00;96598.94;4912798;28;20365;-58
2022/04/19 04:45:08;;;;;;;5.67;5.17;;;;;;;1.09;100.00;96591.25;4946433;28;20773;-60
2022/04/19 04:50:23;;;;;;;6.57;5.57;;;;;;;1.26;100.00;96591.47;4930959;28;20687;-60
2022/04/19 04:52:52;;;;;;;5.90;5.20;;;;;;;1.33;100.00;96589.97;4934673;28;20215;-59
2022/04/19 04:55:21;;;;;;;5.73;5.30;;;;;;;1.44;100.00;96589.81;4948743;28;20536;-54
2022/04/19 04:57:49;;;;;;;6.00;5.50;;;;;;;1.44;100.00;96574.16;4910971;28;20560;-59
2022/04/19 05:00:18;;;;;;;6.00;5.60;;;;;;;1.61;100.00;96584.81;4948169;28;20762;-57
2022/04/19 05:02:47;;;;;;;5.60;5.20;;;;;;;1.73;100.00;96588.91;4948679;28;20268;-63
2022/04/19 05:05:15;;;;;;;5.50;5.10;;;;;;;1.80;100.00;96590.94;4927006;28;20288;-55
2022/04/19 05:07:43;;;;;;;5.10;4.70;;;;;;;1.94;100.00;96590.47;4941382;28;20310;-58
2022/04/19 05:10:11;;;;;;;6.43;5.93;;;;;;;2.02;100.00;96587.94;4944701;28;20234;-61
2022/04/19 05:12:39;;;;;;;5.60;5.20;;;;;;;2.22;100.00;96592.25;4908739;28;20218;-61
2022/04/19 05:15:09;;;;;;;6.57;5.97;;;;;;;2.35;100.00;96590.13;4947288;28;20310;-61
2022/04/19 05:17:37;;;;;;;6.23;5.73;;;;;;;2.44;100.00;96585.78;4949913;28;20213;-60
2022/04/19 05:20:09;;;;;;;5.10;4.80;;;;;;;2.42;100.00;96578.13;4938331;28;20248;-58
2022/04/19 05:22:37;;;;;;;5.47;4.97;;;;;;;2.52;100.00;96580.66;4948017;28;20202;-58
2022/04/19 05:25:06;;;;;;;5.57;5.17;;;;;;;2.61;100.00;96573.72;4932896;28;20707;-60
2022/04/19 05:27:33;;;;;;;5.80;5.40;;;;;;;2.77;100.00;96580.06;4909973;28;21186;-59
2022/04/19 05:30:02;;;;;;;5.70;5.30;;;;;;;2.88;100.00;96579.84;4945760;28;20621;-59
2022/04/19 05:32:30;;;;;;;5.40;5.00;;;;;;;2.98;100.00;96577.97;4945117;28;20221;-60
2022/04/19 05:34:58;;;;;;;5.97;5.40;;;;;;;2.99;100.00;96576.19;4943806;28;20214;-58
2022/04/19 05:37:27;;;;;;;6.37;5.40;;;;;;;3.06;100.00;96590.31;4928371;28;20237;-61
2022/04/19 05:39:55;;;;;;;5.63;5.13;;;;;;;3.16;100.00;96588.41;4935218;28;20226;-60
2022/04/19 05:42:23;;;;;;;5.40;5.00;;;;;;;3.30;100.00;96583.63;4910523;28;20642;-59
2022/04/19 05:44:51;;;;;;;5.90;5.30;;;;;;;3.47;100.00;96587.19;4941972;28;20207;-64
2022/04/19 05:47:19;;;;;;;5.17;4.73;;;;;;;3.63;100.00;96586.47;4944082;28;20519;-58
2022/04/19 05:49:47;;;;;;;4.97;4.57;;;;;;;3.57;100.00;96582.66;4945810;28;20703;-57
2022/04/19 05:52:15;;;;;;;4.90;4.60;;;;;;;3.62;100.00;96580.38;4929262;28;20321;-63
2022/04/19 05:54:44;;;;;;;5.50;5.00;;;;;;;3.59;100.00;96585.94;4942734;28;20305;-59
2022/04/19 05:57:13;;;;;;;5.57;5.17;;;;;;;3.64;100.00;96582.84;4942226;28;20293;-61
2022/04/19 05:59:41;;;;;;;5.07;4.67;;;;;;;3.57;100.00;96582.66;4910089;28;20728;-59
2022/04/19 06:04:54;;;;;;;5.00;4.60;;;;;;;3.67;100.00;96582.53;4947071;28;20686;-59
2022/04/19 06:07:23;;;;;;;6.03;5.33;;;;;;;3.68;100.00;96580.72;4944023;28;20210;-61
2022/04/19 06:09:57;;;;;;;6.07;5.27;;;;;;;3.79;100.00;96588.34;4921686;28;20225;-59
2022/04/19 06:12:25;;;;;;;6.50;5.73;;;;;;;3.92;100.00;96585.28;4941895;28;20202;-59
2022/04/19 06:14:53;;;;;;;5.60;5.20;;;;;;;4.18;100.00;96584.41;4911218;28;20766;-60
2022/04/19 06:17:22;;;;;;;6.23;5.63;;;;;;;4.42;100.00;96586.28;4940880;28;20214;-60
2022/04/19 06:19:50;;;;;;;6.13;5.43;;;;;;;4.62;100.00;96576.31;4946239;28;20222;-58
2022/04/19 06:22:18;;;;;;;4.87;4.57;;;;;;;4.75;100.00;96583.72;4942628;28;20214;-62
2022/04/19 06:24:46;;;;;;;7.33;5.40;;;;;;;5.03;100.00;96580.81;4927053;28;20303;-58
2022/04/19 06:27:15;;;;;;;7.63;5.33;;;;;;;5.24;100.00;96582.13;4932827;28;20328;-62
2022/04/19 06:29:43;;;;;;;5.10;4.70;;;;;;;5.39;100.00;96582.25;4942914;28;20330;-56
2022/04/19 06:32:13;;;;;;;5.60;5.20;;;;;;;5.37;100.00;96579.00;4910285;28;20214;-59
2022/04/19 06:34:41;;;;;;;6.73;5.43;;;;;;;5.50;100.00;96575.84;4944801;28;20290;-62
2022/04/19 06:37:09;;;;;;;5.33;4.90;;;;;;;5.86;100.00;96574.59;4940462;28;20202;-58
2022/04/19 06:39:37;;;;;;;8.23;5.33;;;;;;;6.28;100.00;96581.41;4926684;28;20226;-59
2022/04/19 06:42:06;;;;;;;6.23;5.30;;;;;;;6.93;100.00;96571.47;4935355;28;20296;-62
2022/04/19 06:44:35;;;;;;;5.50;5.00;;;;;;;7.16;100.00;96569.81;4947350;28;20642;-57
2022/04/19 06:47:04;;;;;;;8.00;5.30;;;;;;;7.55;100.00;96565.38;4911813;28;20324;-59
2022/04/19 06:49:32;;;;;;;5.20;4.80;;;;;;;8.13;100.00;96567.34;4943142;28;20206;-57
2022/04/19 06:52:00;;;;;;;7.40;5.90;;;;;;;8.72;100.00;96563.00;4944979;28;20298;-58
2022/04/19 06:54:28;;;;;;;6.00;5.40;;;;;;;9.13;97.44;96559.72;4942283;28;20404;-55
2022/04/19 06:56:56;;;;;;;6.47;5.60;;;;;;;9.08;95.14;96555.00;4919020;28;20213;-57
2022/04/19 06:59:25;;;;;;;6.27;5.83;;;;;;;9.20;98.58;96563.25;4945177;28;20447;-57
2022/04/19 07:01:55;;;;;;;8.23;5.30;;;;;;;9.12;100.00;96558.94;4940850;28;20288;-59
2022/04/19 07:04:23;;;;;;;5.70;5.20;;;;;;;9.12;97.25;96553.66;4915986;28;20453;-58
2022/04/19 07:06:51;;;;;;;5.57;5.07;;;;;;;8.95;94.82;96560.19;4944671;28;20666;-57
2022/04/19 07:09:19;;;;;;;5.30;4.90;;;;;;;8.96;97.37;96554.72;4939033;28;20206;-60
2022/04/19 07:11:48;;;;;;;8.07;5.10;;;;;;;8.92;95.05;96550.00;4927873;28;20341;-59
2022/04/19 07:14:16;;;;;;;6.83;5.27;;;;;;;8.98;100.00;96550.06;4934764;28;20392;-56
2022/04/19 07:16:44;;;;;;;5.30;4.90;;;;;;;8.96;98.76;96546.78;4947082;28;20586;-56
2022/04/19 07:19:14;;;;;;;5.57;5.13;;;;;;;9.10;95.20;96554.81;4906123;28;20835;-59
2022/04/19 07:27:23;;;;;;;4.90;4.50;;;;;;;9.41;93.62;96553.66;4924458;28;21838;-59
2022/04/19 07:29:51;;;;;;;5.97;5.33;;;;;;;9.76;92.15;96545.75;4930130;28;20238;-61
2022/04/19 07:32:19;;;;;;;7.30;5.43;;;;;;;10.13;91.42;96543.72;4941582;28;20433;-56
2022/04/19 07:34:49;;;;;;;5.57;5.07;;;;;;;10.49;79.83;96541.03;4908678;28;20611;-60
2022/04/19 07:37:18;;;;;;;7.40;5.00;;;;;;;10.62;81.50;96535.75;4945104;28;20222;-55
2022/04/19 07:39:46;;;;;;;7.17;4.57;;;;;;;10.33;80.81;96529.72;4938620;28;20550;-57
2022/04/19 07:42:14;;;;;;;5.43;4.90;;;;;;;10.61;80.32;96536.78;4943760;28;20253;-60
2022/04/19 07:44:44;;;;;;;8.73;4.70;;;;;;;10.78;85.11;96531.91;4920498;28;20700;-61
2022/04/19 07:47:14;;;;;;;4.93;4.27;;;;;;;11.18;73.58;96535.63;4947183;28;20214;-58
2022/04/19 07:49:42;;;;;;;5.77;4.40;;;;;;;11.41;67.30;96528.09;4908830;28;20861;-55
2022/04/19 07:52:11;;;;;;;5.17;4.77;;;;;;;11.53;66.52;96525.59;4939085;28;20231;-56
2022/04/19 07:54:39;;;;;;;7.20;4.17;;;;;;;11.66;70.27;96522.13;4938990;28;20528;-59
2022/04/19 07:57:08;;;;;;;5.53;4.17;;;;;;;11.63;67.01;96517.22;4944025;28;20207;-58
2022/04/19 07:59:36;;;;;;;4.03;3.73;;;;;;;11.94;67.22;96522.88;4918027;28;20461;-59
2022/04/19 08:02:05;;;;;;;5.17;3.90;;;;;;;12.02;65.77;96520.84;4944461;28;20297;-60
2022/04/19 08:04:33;;;;;;;4.23;3.83;;;;;;;11.86;67.46;96522.06;4908399;28;20210;-59
2022/04/19 08:07:02;;;;;;;5.50;3.67;;;;;;;11.83;67.04;96532.31;4945548;28;20202;-58
2022/04/19 08:09:32;;;;;;;4.17;3.87;;;;;;;11.74;63.71;96523.75;4948805;28;20289;-59
2022/04/19 08:12:00;;;;;;;4.33;3.67;;;;;;;11.49;63.19;96527.03;4948180;28;20314;-52
2022/04/19 08:14:28;;;;;;;4.20;3.80;;;;;;;10.97;65.42;96522.38;4933217;28;20296;-58
2022/04/19 08:16:56;;;;;;;4.27;3.57;;;;;;;11.07;67.97;96523.78;4942203;28;20856;-55
2022/04/19 08:19:24;;;;;;;3.93;3.63;;;;;;;11.28;68.92;96520.13;4929939;28;20239;-59
2022/04/19 08:21:52;;;;;;;5.77;3.87;;;;;;;11.36;67.27;96511.94;4930239;28;20211;-55
2022/04/19 08:24:20;;;;;;;4.73;3.93;;;;;;;11.65;67.56;96498.47;4945875;28;20876;-59
2022/04/19 08:26:50;;;;;;;5.47;3.50;;;;;;;11.71;67.84;96509.03;4944045;28;20788;-56
2022/04/19 08:29:18;;;;;;;4.80;4.00;;;;;;;12.05;64.66;96500.19;4934226;28;20395;-59
2022/04/19 08:31:46;;;;;;;4.50;4.10;;;;;;;12.10;59.51;96495.91;4937620;28;20461;-59
2022/04/19 08:34:14;;;;;;;4.93;3.93;;;;;;;12.19;62.67;96493.00;4944237;28;20668;-59
2022/04/19 08:36:43;;;;;;;5.20;4.77;;;;;;;12.32;60.25;96492.94;4911308;28;20995;-60
2022/04/19 08:39:11;;;;;;;4.23;3.93;;;;;;;12.24;59.57;96498.47;4948710;28;20203;-58
2022/04/19 08:41:40;;;;;;;4.10;3.80;;;;;;;12.40;58.24;96484.72;4943667;28;20500;-56
2022/04/19 08:44:11;;;;;;;6.73;4.30;;;;;;;12.75;58.50;96488.81;4930615;28;20477;-60
2022/04/19 08:46:40;;;;;;;4.43;4.07;;;;;;;12.76;53.83;96481.66;4934162;28;20290;-58
2022/04/19 08:49:09;;;;;;;5.57;4.90;;;;;;;13.03;56.31;96480.41;4945929;28;20293;-60
2022/04/19 08:51:37;;;;;;;4.30;4.00;;;;;;;13.53;55.87;96491.28;4915043;28;21602;-58
2022/04/19 08:59:46;;;;;;;4.40;4.00;;;;;;;14.30;48.68;96474.03;4917884;28;20767;-55
2022/04/19 09:02:23;;;;;;;3.93;3.60;;;;;;;14.28;49.25;96476.91;4945145;28;20213;-60
2022/04/19 09:04:52;;;;;;;4.37;4.07;;;;;;;14.60;46.85;96475.88;4937493;28;20245;-60
2022/04/19 09:07:22;;;;;;;4.33;4.03;;;;;;;13.91;47.21;96479.59;4937751;28;20466;-62
2022/04/19 09:09:58;;;;;;;5.27;4.37;;;;;;;13.02;43.75;96486.75;4932305;28;20617;-60
2022/04/19 09:12:27;;;;;;;4.47;4.17;;;;;;;12.64;45.91;96484.19;4944655;28;20317;-61
2022/04/19 09:14:58;;;;;;;4.30;3.97;;;;;;;12.48;46.25;96480.19;4929674;28;20384;-55
2022/04/19 09:17:37;;;;;;;4.07;3.77;;;;;;;12.76;46.61;96486.97;4940371;28;21327;-60
2022/04/19 09:20:18;;;;;;;4.50;4.10;;;;;;;12.66;46.50;96482.13;4948376;28;20230;-60
2022/04/19 09:22:48;;;;;;;3.90;3.60;;;;;;;12.36;45.72;96480.88;4945050;28;20617;-60
2022/04/19 09:25:24;;;;;;;4.00;3.70;;;;;;;12.15;46.61;96474.81;4911537;28;20329;-60
2022/04/19 09:27:53;;;;;;;3.90;3.57;;;;;;;12.33;46.92;96473.31;4950172;28;20294;-59
2022/04/19 09:30:24;;;;;;;3.80;3.50;;;;;;;12.42;47.04;96466.72;4927812;28;20515;-60
2022/04/19 09:33:09;;;;;;;3.80;3.60;;;;;;;13.04;45.68;96467.94;4938306;28;20291;-57
2022/04/19 09:35:39;;;;;;;3.30;3.10;;;;;;;12.94;45.43;96471.06;4944382;28;20307;-57
2022/04/19 09:38:08;;;;;;;4.47;3.03;;;;;;;12.81;46.04;96461.34;4946219;28;20308;-57
2022/04/19 09:40:38;;;;;;;3.60;3.30;;;;;;;13.14;45.58;96470.13;4911669;28;20356;-60
2022/04/19 09:43:14;;;;;;;3.30;3.00;;;;;;;13.02;44.73;96459.38;4944224;28;20810;-60
2022/04/19 09:45:56;;;;;;;3.53;3.27;;;;;;;13.34;44.88;96461.13;4926518;28;21000;-61
2022/04/19 09:48:26;;;;;;;3.10;2.90;;;;;;;13.39;45.30;96448.81;4947576;28;20643;-61
2022/04/19 09:50:59;;;;;;;2.83;2.63;;;;;;;13.59;43.87;96453.13;4937296;28;21221;-60
2022/04/19 09:53:28;;;;;;;3.47;3.20;;;;;;;13.77;44.39;96444.31;4947083;28;20215;-62
2022/04/19 09:55:58;;;;;;;3.37;2.93;;;;;;;14.32;42.97;96443.44;4917588;28;20211;-61
2022/04/19 09:58:27;;;;;;;2.60;2.40;;;;;;;14.84;41.95;96438.63;4940324;28;20298;-59
2022/04/19 10:00:57;;;;;;;2.70;2.57;;;;;;;14.44;42.22;96435.47;4930265;28;20230;-58
2022/04/19 10:09:01;;;;;;;2.70;2.53;;;;;;;14.58;42.21;96433.44;4943086;28;20207;-59
2022/04/19 10:11:29;;;;;;;2.73;2.57;;;;;;;14.93;39.99;96421.22;4910517;28;20231;-59
2022/04/19 10:13:59;;;;;;;2.50;2.30;;;;;;;15.01;40.18;96428.09;4942590;28;20631;-58
2022/04/19 10:16:30;;;;;;;2.40;2.30;;;;;;;14.83;40.10;96427.16;4936804;28;20213;-59
2022/04/19 10:18:59;;;;;;;2.37;2.27;;;;;;;14.98;40.63;96424.03;4945684;28;20211;-57
2022/04/19 10:21:30;;;;;;;2.23;2.13;;;;;;;14.74;39.80;96432.00;4932821;28;20517;-60
2022/04/19 10:24:12;;;;;;;2.40;2.20;;;;;;;14.57;40.86;96433.66;4946203;28;21041;-57
2022/04/19 10:26:47;;;;;;;3.03;2.73;;;;;;;14.33;41.87;96425.59;4906999;28;20856;-55
2022/04/19 10:29:23;;;;;;;2.70;2.60;;;;;;;13.97;42.01;96441.44;4943730;28;20202;-55
2022/04/19 10:31:59;;;;;;;3.90;3.60;;;;;;;13.84;43.66;96439.75;4941287;28;20510;-59
2022/04/19 10:34:29;;;;;;;2.70;2.50;;;;;;;14.13;43.44;96437.34;4926302;28;20481;-62
2022/04/19 10:37:01;;;;;;;2.20;2.10;;;;;;;14.53;41.40;96430.66;4936372;28;21792;-58
2022/04/19 10:39:32;;;;;;;2.13;1.93;;;;;;;14.97;40.74;96427.75;4941611;28;20207;-58
2022/04/19 10:42:01;;;;;;;2.23;2.13;;;;;;;15.11;40.76;96414.19;4947439;28;20572;-55
2022/04/19 10:44:35;;;;;;;2.53;2.33;;;;;;;14.86;41.37;96423.19;4911044;28;20237;-59
2022/04/19 10:47:12;;;;;;;2.67;2.47;;;;;;;14.79;42.47;96419.84;4944679;28;20233;-58
2022/04/19 10:50:02;;;;;;;3.30;2.70;;;;;;;14.47;41.91;96415.56;4922715;28;20225;-56
2022/04/19 10:52:50;;;;;;;3.00;2.80;;;;;;;14.63;42.53;96416.78;4934312;28;20261;-59
2022/04/19 10:55:26;;;;;;;4.97;3.03;;;;;;;14.54;42.27;96408.28;4946267;28;20206;-58
2022/04/19 10:58:17;;;;;;;2.97;2.77;;;;;;;14.80;44.42;96414.28;4913662;28;20222;-58
2022/04/19 11:00:48;;;;;;;2.33;2.23;;;;;;;14.92;42.40;96411.59;4938071;28;20866;-59
2022/04/19 11:03:52;;;;;;;2.20;2.10;;;;;;;14.65;42.51;96412.03;4924481;28;20591;-59
2022/04/19 11:06:34;;;;;;;2.60;2.40;;;;;;;14.42;42.38;96402.13;4936722;28;20607;-61
2022/04/19 11:09:07;;;;;;;3.60;2.33;;;;;;;14.29;43.68;96411.13;4946298;28;20685;-62
2022/04/19 11:11:46;;;;;;;2.67;2.50;;;;;;;14.64;43.42;96399.75;4944392;28;21054;-57
2022/04/19 11:14:36;;;;;;;2.40;2.30;;;;;;;14.15;41.88;96403.28;4910981;28;20273;-56
2022/04/19 11:17:40;;;;;;;3.13;2.27;;;;;;;13.72;42.31;96393.59;4945869;28;20237;-60
2022/04/19 11:20:14;;;;;;;2.57;2.37;;;;;;;14.07;43.62;96397.50;4872118;29;20235;-59
2022/04/19 11:22:46;;;;;;;2.70;2.50;;;;;;;14.19;42.98;96395.66;4875457;29;20657;-60
2022/04/19 11:25:14;;;;;;;2.07;1.97;;;;;;;14.08;43.67;96385.78;4885765;29;20205;-58
2022/04/19 11:28:20;;;;;;;2.47;2.27;;;;;;;14.17;42.00;96387.09;4883075;29;20452;-60
2022/04/19 11:31:15;;;;;;;3.90;2.10;;;;;;;14.27;43.03;96381.22;4866365;29;20464;-60
2022/04/19 11:33:43;;;;;;;2.10;2.00;;;;;;;14.75;42.17;96388.31;4882067;29;20847;-57
2022/04/19 11:36:15;;;;;;;2.27;2.17;;;;;;;15.25;43.38;96377.41;4868487;29;20240;-55
2022/04/19 11:38:46;;;;;;;2.27;1.93;;;;;;;15.02;40.26;96374.53;4873888;29;20334;-54
2022/04/19 11:46:46;;;;;;;2.30;2.10;;;;;;;14.47;42.66;96383.59;4865210;29;20204;-58
2022/04/19 11:49:34;;;;;;;2.10;2.00;;;;;;;14.55;42.97;96380.59;4891015;29;20280;-58
2022/04/19 11:52:08;;;;;;;2.10;1.90;;;;;;;14.92;41.96;96389.47;4876154;29;20358;-54
2022/04/19 11:54:36;;;;;;;2.37;2.17;;;;;;;15.07;42.19;96387.16;4910231;28;20268;-57
2022/04/19 11:57:06;;;;;;;4.37;2.20;;;;;;;14.76;42.16;96381.91;4952738;28;20269;-58
2022/04/19 11:59:36;;;;;;;2.77;1.90;;;;;;;14.29;43.16;96371.94;4910865;28;20214;-58
2022/04/19 12:02:05;;;;;;;2.10;2.00;;;;;;;14.12;44.16;96379.78;4945654;28;20221;-56
2022/04/19 12:04:34;;;;;;;1.80;1.70;;;;;;;13.88;45.48;96386.84;4945758;28;20665;-57
2022/04/19 12:07:02;;;;;;;2.50;2.40;;;;;;;13.70;44.60;96393.00;4934155;28;20301;-55
2022/04/19 12:09:33;;;;;;;2.67;2.47;;;;;;;13.65;44.33;96385.72;4934017;28;20203;-60
2022/04/19 12:12:05;;;;;;;2.50;2.30;;;;;;;13.56;43.35;96385.19;4948055;28;20261;-61
2022/04/19 12:14:34;;;;;;;2.23;2.03;;;;;;;13.94;44.53;96382.50;4947025;28;20234;-59
2022/04/19 12:17:03;;;;;;;2.03;1.93;;;;;;;14.11;43.21;96375.47;4915400;28;20214;-60
2022/04/19 12:19:34;;;;;;;2.10;2.00;;;;;;;14.13;43.67;96376.06;4944529;28;20195;-57
2022/04/19 12:22:03;;;;;;;2.07;1.77;;;;;;;14.03;42.41;96386.47;4948107;28;20607;-55
2022/04/19 12:24:32;;;;;;;2.40;1.90;;;;;;;14.20;42.73;96368.00;4916755;28;20960;-58